sensor_id;sensor_type;location;lat;lon;timestamp;pressure;altitude;pressure_sealevel;temperature;humidity
79534;BME280;68982;52.160;6.736;2023-07-16T00:01:34;100667.91;;;18.48;86.51
79534;BME280;68982;52.160;6.736;2023-07-16T00:03:59;100664.06;;;18.49;85.51
79534;BME280;68982;52.160;6.736;2023-07-16T00:06:24;100664.03;;;18.61;85.02
79534;BME280;68982;52.160;6.736;2023-07-16T00:08:50;100672.34;;;18.83;83.65
79534;BME280;68982;52.160;6.736;2023-07-16T00:11:15;100677.34;;;18.57;85.73
79534;BME280;68982;52.160;6.736;2023-07-16T00:13:41;100678.50;;;18.61;85.42
79534;BME280;68982;52.160;6.736;2023-07-16T00:16:11;100672.47;;;18.59;85.22
79534;BME280;68982;52.160;6.736;2023-07-16T00:18:37;100666.63;;;18.39;86.33
79534;BME280;68982;52.160;6.736;2023-07-16T00:21:02;100667.81;;;18.60;85.39
79534;BME280;68982;52.160;6.736;2023-07-16T00:23:27;100666.94;;;18.42;86.66
79534;BME280;68982;52.160;6.736;2023-07-16T00:25:53;100663.19;;;18.32;86.17
79534;BME280;68982;52.160;6.736;2023-07-16T00:28:18;100673.81;;;18.28;87.44
79534;BME280;68982;52.160;6.736;2023-07-16T00:30:43;100673.56;;;18.30;86.85
79534;BME280;68982;52.160;6.736;2023-07-16T00:33:09;100683.91;;;18.28;87.23
79534;BME280;68982;52.160;6.736;2023-07-16T00:35:34;100676.28;;;18.30;87.05
79534;BME280;68982;52.160;6.736;2023-07-16T00:37:59;100672.72;;;18.29;87.28
79534;BME280;68982;52.160;6.736;2023-07-16T00:40:25;100665.53;;;18.11;87.05
79534;BME280;68982;52.160;6.736;2023-07-16T00:42:50;100676.03;;;18.31;86.70
79534;BME280;68982;52.160;6.736;2023-07-16T00:45:16;100672.31;;;18.09;88.56
79534;BME280;68982;52.160;6.736;2023-07-16T00:47:42;100682.06;;;18.05;87.79
79534;BME280;68982;52.160;6.736;2023-07-16T00:50:10;100665.53;;;18.23;87.50
79534;BME280;68982;52.160;6.736;2023-07-16T00:52:37;100689.28;;;18.11;87.78
79534;BME280;68982;52.160;6.736;2023-07-16T00:55:03;100674.81;;;18.10;87.18
79534;BME280;68982;52.160;6.736;2023-07-16T00:57:29;100668.09;;;18.30;85.63
79534;BME280;68982;52.160;6.736;2023-07-16T00:59:55;100672.75;;;18.46;84.66
79534;BME280;68982;52.160;6.736;2023-07-16T01:02:20;100662.66;;;18.18;86.40
79534;BME280;68982;52.160;6.736;2023-07-16T01:04:46;100675.00;;;18.20;86.43
79534;BME280;68982;52.160;6.736;2023-07-16T01:07:13;100671.41;;;18.03;86.81
79534;BME280;68982;52.160;6.736;2023-07-16T01:09:42;100681.59;;;18.08;85.88
79534;BME280;68982;52.160;6.736;2023-07-16T01:12:08;100679.22;;;17.99;86.73
79534;BME280;68982;52.160;6.736;2023-07-16T01:14:34;100683.38;;;17.78;87.30
79534;BME280;68982;52.160;6.736;2023-07-16T01:17:05;100687.19;;;17.77;87.11
79534;BME280;68982;52.160;6.736;2023-07-16T01:19:34;100693.38;;;17.73;87.52
79534;BME280;68982;52.160;6.736;2023-07-16T01:24:44;100700.91;;;18.06;85.51
79534;BME280;68982;52.160;6.736;2023-07-16T01:27:41;100691.66;;;18.07;86.14
79534;BME280;68982;52.160;6.736;2023-07-16T01:30:15;100697.59;;;18.04;85.88
79534;BME280;68982;52.160;6.736;2023-07-16T01:32:44;100688.56;;;18.15;85.04
79534;BME280;68982;52.160;6.736;2023-07-16T01:35:11;100707.50;;;18.22;84.76
79534;BME280;68982;52.160;6.736;2023-07-16T01:37:36;100698.78;;;18.08;85.63
79534;BME280;68982;52.160;6.736;2023-07-16T01:40:02;100702.34;;;18.09;86.01
79534;BME280;68982;52.160;6.736;2023-07-16T01:42:29;100704.16;;;18.03;86.48
79534;BME280;68982;52.160;6.736;2023-07-16T01:44:54;100703.28;;;18.02;86.10
79534;BME280;68982;52.160;6.736;2023-07-16T01:49:54;100703.13;;;18.21;84.45
79534;BME280;68982;52.160;6.736;2023-07-16T01:52:20;100701.00;;;18.23;84.77
79534;BME280;68982;52.160;6.736;2023-07-16T01:54:45;100697.56;;;18.16;84.24
79534;BME280;68982;52.160;6.736;2023-07-16T01:57:11;100689.28;;;18.11;84.74
79534;BME280;68982;52.160;6.736;2023-07-16T01:59:36;100696.66;;;18.10;84.22
79534;BME280;68982;52.160;6.736;2023-07-16T02:02:02;100694.97;;;18.09;84.12
79534;BME280;68982;52.160;6.736;2023-07-16T02:04:27;100702.72;;;17.89;85.26
79534;BME280;68982;52.160;6.736;2023-07-16T02:06:53;100702.50;;;17.90;84.60
79534;BME280;68982;52.160;6.736;2023-07-16T02:09:18;100699.69;;;18.14;83.53
79534;BME280;68982;52.160;6.736;2023-07-16T02:11:43;100701.66;;;18.01;83.75
79534;BME280;68982;52.160;6.736;2023-07-16T02:14:09;100701.19;;;17.93;83.84
79534;BME280;68982;52.160;6.736;2023-07-16T02:16:34;100702.47;;;18.02;83.21
79534;BME280;68982;52.160;6.736;2023-07-16T02:18:59;100698.69;;;17.79;84.10
79534;BME280;68982;52.160;6.736;2023-07-16T02:21:25;100694.31;;;17.90;83.36
79534;BME280;68982;52.160;6.736;2023-07-16T02:23:50;100698.47;;;17.81;83.08
79534;BME280;68982;52.160;6.736;2023-07-16T02:26:15;100699.50;;;17.80;82.17
79534;BME280;68982;52.160;6.736;2023-07-16T02:28:41;100697.41;;;17.82;81.40
79534;BME280;68982;52.160;6.736;2023-07-16T02:31:06;100706.03;;;18.02;81.54
79534;BME280;68982;52.160;6.736;2023-07-16T02:33:31;100704.53;;;17.83;80.64
79534;BME280;68982;52.160;6.736;2023-07-16T02:35:57;100704.75;;;17.93;80.71
79534;BME280;68982;52.160;6.736;2023-07-16T02:38:22;100711.03;;;17.94;80.28
79534;BME280;68982;52.160;6.736;2023-07-16T02:40:48;100713.06;;;17.87;80.83
79534;BME280;68982;52.160;6.736;2023-07-16T02:43:14;100703.69;;;17.83;80.53
79534;BME280;68982;52.160;6.736;2023-07-16T02:45:40;100714.13;;;17.86;80.44
79534;BME280;68982;52.160;6.736;2023-07-16T02:48:06;100712.94;;;17.58;81.09
79534;BME280;68982;52.160;6.736;2023-07-16T02:50:38;100718.03;;;17.66;81.01
79534;BME280;68982;52.160;6.736;2023-07-16T02:53:04;100717.34;;;17.59;80.68
79534;BME280;68982;52.160;6.736;2023-07-16T02:55:30;100716.25;;;17.48;81.90
79534;BME280;68982;52.160;6.736;2023-07-16T02:57:55;100720.28;;;17.69;80.64
79534;BME280;68982;52.160;6.736;2023-07-16T03:00:21;100722.66;;;17.54;81.75
79534;BME280;68982;52.160;6.736;2023-07-16T03:02:47;100724.56;;;17.53;81.68
79534;BME280;68982;52.160;6.736;2023-07-16T03:05:12;100720.78;;;17.54;82.03
79534;BME280;68982;52.160;6.736;2023-07-16T03:07:37;100716.63;;;17.64;81.42
79534;BME280;68982;52.160;6.736;2023-07-16T03:10:03;100714.38;;;17.84;80.54
79534;BME280;68982;52.160;6.736;2023-07-16T03:12:28;100718.72;;;17.73;80.72
79534;BME280;68982;52.160;6.736;2023-07-16T03:14:54;100724.47;;;17.84;80.05
79534;BME280;68982;52.160;6.736;2023-07-16T03:17:22;100723.72;;;17.53;81.21
79534;BME280;68982;52.160;6.736;2023-07-16T03:19:48;100726.31;;;17.71;80.72
79534;BME280;68982;52.160;6.736;2023-07-16T03:22:13;100724.91;;;17.33;81.25
79534;BME280;68982;52.160;6.736;2023-07-16T03:24:39;100729.16;;;17.29;81.60
79534;BME280;68982;52.160;6.736;2023-07-16T03:27:06;100729.41;;;17.28;81.99
79534;BME280;68982;52.160;6.736;2023-07-16T03:29:32;100718.97;;;17.01;82.32
79534;BME280;68982;52.160;6.736;2023-07-16T03:31:58;100725.25;;;17.13;82.38
79534;BME280;68982;52.160;6.736;2023-07-16T03:34:23;100727.75;;;17.15;82.30
79534;BME280;68982;52.160;6.736;2023-07-16T03:36:49;100729.59;;;17.03;82.52
79534;BME280;68982;52.160;6.736;2023-07-16T03:39:14;100729.69;;;16.96;82.69
79534;BME280;68982;52.160;6.736;2023-07-16T03:41:40;100736.50;;;16.75;83.30
79534;BME280;68982;52.160;6.736;2023-07-16T03:44:05;100740.72;;;16.71;83.68
79534;BME280;68982;52.160;6.736;2023-07-16T03:46:30;100736.00;;;16.78;83.34
79534;BME280;68982;52.160;6.736;2023-07-16T03:48:56;100736.06;;;16.60;84.04
79534;BME280;68982;52.160;6.736;2023-07-16T03:51:21;100736.81;;;16.85;83.73
79534;BME280;68982;52.160;6.736;2023-07-16T03:53:46;100739.03;;;16.58;84.31
79534;BME280;68982;52.160;6.736;2023-07-16T03:56:12;100747.66;;;16.55;84.80
79534;BME280;68982;52.160;6.736;2023-07-16T03:58:37;100747.78;;;16.60;84.67
79534;BME280;68982;52.160;6.736;2023-07-16T04:01:03;100759.19;;;16.69;85.04
79534;BME280;68982;52.160;6.736;2023-07-16T04:03:28;100757.06;;;16.71;84.71
79534;BME280;68982;52.160;6.736;2023-07-16T04:06:04;100755.44;;;16.70;84.97
79534;BME280;68982;52.160;6.736;2023-07-16T04:08:29;100761.31;;;16.85;83.92
79534;BME280;68982;52.160;6.736;2023-07-16T04:10:55;100758.94;;;16.89;83.98
79534;BME280;68982;52.160;6.736;2023-07-16T04:13:20;100771.41;;;16.78;84.95
79534;BME280;68982;52.160;6.736;2023-07-16T04:15:46;100771.81;;;16.82;84.47
79534;BME280;68982;52.160;6.736;2023-07-16T04:18:11;100771.53;;;17.02;84.31
79534;BME280;68982;52.160;6.736;2023-07-16T04:20:36;100774.34;;;16.95;84.35
79534;BME280;68982;52.160;6.736;2023-07-16T04:23:02;100771.88;;;16.75;85.44
79534;BME280;68982;52.160;6.736;2023-07-16T04:25:27;100782.63;;;16.88;84.96
79534;BME280;68982;52.160;6.736;2023-07-16T04:27:53;100786.00;;;17.14;83.78
79534;BME280;68982;52.160;6.736;2023-07-16T04:30:18;100776.69;;;16.91;84.78
79534;BME280;68982;52.160;6.736;2023-07-16T04:32:43;100789.53;;;17.03;84.68
79534;BME280;68982;52.160;6.736;2023-07-16T04:35:09;100782.75;;;16.93;85.24
79534;BME280;68982;52.160;6.736;2023-07-16T04:37:34;100784.84;;;17.10;84.72
79534;BME280;68982;52.160;6.736;2023-07-16T04:39:59;100790.47;;;16.78;85.78
79534;BME280;68982;52.160;6.736;2023-07-16T04:42:25;100788.09;;;17.00;84.43
79534;BME280;68982;52.160;6.736;2023-07-16T04:44:50;100790.19;;;16.86;85.17
79534;BME280;68982;52.160;6.736;2023-07-16T04:47:15;100796.75;;;16.97;84.55
79534;BME280;68982;52.160;6.736;2023-07-16T04:49:41;100781.59;;;17.01;83.97
79534;BME280;68982;52.160;6.736;2023-07-16T04:52:06;100809.63;;;16.90;84.80
79534;BME280;68982;52.160;6.736;2023-07-16T04:54:36;100801.28;;;17.03;83.87
79534;BME280;68982;52.160;6.736;2023-07-16T04:57:02;100805.78;;;17.09;83.36
79534;BME280;68982;52.160;6.736;2023-07-16T04:59:27;100805.75;;;16.97;83.68
79534;BME280;68982;52.160;6.736;2023-07-16T05:01:53;100813.81;;;17.04;83.14
79534;BME280;68982;52.160;6.736;2023-07-16T05:04:18;100802.72;;;16.87;82.72
79534;BME280;68982;52.160;6.736;2023-07-16T05:06:44;100799.34;;;16.92;81.71
79534;BME280;68982;52.160;6.736;2023-07-16T05:09:09;100805.66;;;17.16;81.35
79534;BME280;68982;52.160;6.736;2023-07-16T05:11:34;100823.00;;;17.22;79.49
79534;BME280;68982;52.160;6.736;2023-07-16T05:14:00;100800.38;;;16.91;78.72
79534;BME280;68982;52.160;6.736;2023-07-16T05:16:25;100817.81;;;16.90;77.34
79534;BME280;68982;52.160;6.736;2023-07-16T05:18:50;100826.19;;;16.88;77.32
79534;BME280;68982;52.160;6.736;2023-07-16T05:21:16;100820.03;;;16.81;78.72
79534;BME280;68982;52.160;6.736;2023-07-16T05:23:41;100836.91;;;17.02;75.88
79534;BME280;68982;52.160;6.736;2023-07-16T05:26:06;100822.72;;;17.11;77.42
79534;BME280;68982;52.160;6.736;2023-07-16T05:28:32;100844.78;;;17.10;77.53
79534;BME280;68982;52.160;6.736;2023-07-16T05:30:59;100838.56;;;17.03;75.02
79534;BME280;68982;52.160;6.736;2023-07-16T05:33:24;100835.09;;;16.95;76.25
79534;BME280;68982;52.160;6.736;2023-07-16T05:35:49;100849.28;;;16.86;75.56
79534;BME280;68982;52.160;6.736;2023-07-16T05:38:15;100841.19;;;17.09;76.01
79534;BME280;68982;52.160;6.736;2023-07-16T05:40:41;100836.19;;;16.94;75.31
79534;BME280;68982;52.160;6.736;2023-07-16T05:43:06;100847.34;;;17.05;76.53
79534;BME280;68982;52.160;6.736;2023-07-16T05:45:32;100848.63;;;17.02;78.33
79534;BME280;68982;52.160;6.736;2023-07-16T05:47:57;100852.66;;;16.99;74.83
79534;BME280;68982;52.160;6.736;2023-07-16T05:50:22;100856.16;;;16.88;73.44
79534;BME280;68982;52.160;6.736;2023-07-16T05:52:48;100850.56;;;16.83;72.43
79534;BME280;68982;52.160;6.736;2023-07-16T05:55:14;100857.28;;;16.81;73.82
79534;BME280;68982;52.160;6.736;2023-07-16T05:57:40;100864.16;;;17.02;74.33
79534;BME280;68982;52.160;6.736;2023-07-16T06:00:05;100865.19;;;17.01;74.47
79534;BME280;68982;52.160;6.736;2023-07-16T06:02:32;100882.63;;;16.99;72.26
79534;BME280;68982;52.160;6.736;2023-07-16T06:04:57;100874.66;;;16.98;71.74
79534;BME280;68982;52.160;6.736;2023-07-16T06:07:22;100861.91;;;16.98;71.74
79534;BME280;68982;52.160;6.736;2023-07-16T06:09:48;100873.72;;;16.92;70.76
79534;BME280;68982;52.160;6.736;2023-07-16T06:12:13;100878.81;;;17.01;71.86
79534;BME280;68982;52.160;6.736;2023-07-16T06:14:39;100867.59;;;17.09;69.38
79534;BME280;68982;52.160;6.736;2023-07-16T06:17:05;100873.56;;;17.17;72.63
79534;BME280;68982;52.160;6.736;2023-07-16T06:19:30;100874.63;;;17.16;68.62
79534;BME280;68982;52.160;6.736;2023-07-16T06:21:56;100872.41;;;17.25;69.94
79534;BME280;68982;52.160;6.736;2023-07-16T06:24:21;100872.34;;;17.44;69.68
79534;BME280;68982;52.160;6.736;2023-07-16T06:26:47;100880.78;;;17.54;69.17
79534;BME280;68982;52.160;6.736;2023-07-16T06:29:13;100882.44;;;17.43;68.96
79534;BME280;68982;52.160;6.736;2023-07-16T06:31:38;100883.00;;;17.45;70.08
79534;BME280;68982;52.160;6.736;2023-07-16T06:34:04;100882.66;;;17.42;69.07
79534;BME280;68982;52.160;6.736;2023-07-16T06:36:29;100886.69;;;17.39;69.06
79534;BME280;68982;52.160;6.736;2023-07-16T06:38:54;100886.31;;;17.47;67.85
79534;BME280;68982;52.160;6.736;2023-07-16T06:41:20;100877.94;;;17.60;67.08
79534;BME280;68982;52.160;6.736;2023-07-16T06:43:45;100882.25;;;17.68;67.90
79534;BME280;68982;52.160;6.736;2023-07-16T06:46:11;100900.34;;;17.63;66.46
79534;BME280;68982;52.160;6.736;2023-07-16T06:48:36;100892.06;;;17.57;67.83
79534;BME280;68982;52.160;6.736;2023-07-16T06:51:01;100900.75;;;17.78;68.98
79534;BME280;68982;52.160;6.736;2023-07-16T06:53:27;100887.00;;;17.73;67.74
79534;BME280;68982;52.160;6.736;2023-07-16T06:55:52;100899.31;;;17.75;66.17
79534;BME280;68982;52.160;6.736;2023-07-16T06:58:17;100894.84;;;17.81;67.24
79534;BME280;68982;52.160;6.736;2023-07-16T07:00:43;100887.63;;;17.87;66.46
79534;BME280;68982;52.160;6.736;2023-07-16T07:03:08;100915.63;;;17.94;67.26
79534;BME280;68982;52.160;6.736;2023-07-16T07:05:34;100909.44;;;17.87;67.08
79534;BME280;68982;52.160;6.736;2023-07-16T07:08:01;100920.47;;;17.92;66.27
79534;BME280;68982;52.160;6.736;2023-07-16T07:10:27;100914.94;;;18.10;67.17
79534;BME280;68982;52.160;6.736;2023-07-16T07:12:52;100912.91;;;18.06;67.09
79534;BME280;68982;52.160;6.736;2023-07-16T07:15:17;100928.22;;;18.18;65.17
79534;BME280;68982;52.160;6.736;2023-07-16T07:17:43;100934.53;;;18.19;65.13
79534;BME280;68982;52.160;6.736;2023-07-16T07:20:12;100929.41;;;18.11;64.20
79534;BME280;68982;52.160;6.736;2023-07-16T07:22:38;100933.06;;;18.05;65.11
79534;BME280;68982;52.160;6.736;2023-07-16T07:25:04;100933.66;;;18.18;65.88
79534;BME280;68982;52.160;6.736;2023-07-16T07:27:30;100936.06;;;18.27;64.25
79534;BME280;68982;52.160;6.736;2023-07-16T07:29:55;100934.41;;;18.26;64.95
79534;BME280;68982;52.160;6.736;2023-07-16T07:32:21;100926.22;;;18.37;64.96
79534;BME280;68982;52.160;6.736;2023-07-16T07:34:47;100934.75;;;18.53;65.18
79534;BME280;68982;52.160;6.736;2023-07-16T07:37:12;100946.72;;;18.52;63.29
79534;BME280;68982;52.160;6.736;2023-07-16T07:39:38;100945.31;;;18.49;64.09
79534;BME280;68982;52.160;6.736;2023-07-16T07:42:03;100939.84;;;18.37;63.42
79534;BME280;68982;52.160;6.736;2023-07-16T07:44:29;100936.91;;;18.39;62.65
79534;BME280;68982;52.160;6.736;2023-07-16T07:46:54;100933.56;;;18.49;65.25
79534;BME280;68982;52.160;6.736;2023-07-16T07:49:20;100941.97;;;18.71;65.28
79534;BME280;68982;52.160;6.736;2023-07-16T07:51:45;100936.72;;;18.69;62.94
79534;BME280;68982;52.160;6.736;2023-07-16T07:54:12;100933.66;;;18.77;63.49
79534;BME280;68982;52.160;6.736;2023-07-16T07:56:37;100938.28;;;18.77;61.84
79534;BME280;68982;52.160;6.736;2023-07-16T07:59:04;100941.22;;;18.99;61.98
79534;BME280;68982;52.160;6.736;2023-07-16T08:01:29;100939.63;;;19.15;63.12
79534;BME280;68982;52.160;6.736;2023-07-16T08:03:54;100945.38;;;19.01;63.97
79534;BME280;68982;52.160;6.736;2023-07-16T08:06:20;100932.91;;;19.05;62.11
79534;BME280;68982;52.160;6.736;2023-07-16T08:08:45;100951.94;;;19.29;60.99
79534;BME280;68982;52.160;6.736;2023-07-16T08:11:10;100951.19;;;19.34;61.30
79534;BME280;68982;52.160;6.736;2023-07-16T08:13:36;100949.34;;;19.22;61.48
79534;BME280;68982;52.160;6.736;2023-07-16T08:16:01;100957.66;;;19.28;61.08
79534;BME280;68982;52.160;6.736;2023-07-16T08:18:27;100955.09;;;19.38;61.42
79534;BME280;68982;52.160;6.736;2023-07-16T08:20:52;100946.22;;;19.59;60.77
79534;BME280;68982;52.160;6.736;2023-07-16T08:23:18;100961.06;;;19.63;59.89
79534;BME280;68982;52.160;6.736;2023-07-16T08:25:43;100969.34;;;19.68;59.58
79534;BME280;68982;52.160;6.736;2023-07-16T08:28:09;100950.38;;;19.62;60.06
79534;BME280;68982;52.160;6.736;2023-07-16T08:30:35;100978.63;;;19.79;60.15
79534;BME280;68982;52.160;6.736;2023-07-16T08:33:00;100967.88;;;19.61;59.53
79534;BME280;68982;52.160;6.736;2023-07-16T08:35:26;100957.63;;;19.85;59.61
79534;BME280;68982;52.160;6.736;2023-07-16T08:37:51;100979.63;;;20.07;58.92
79534;BME280;68982;52.160;6.736;2023-07-16T08:40:17;100959.13;;;20.26;58.99
79534;BME280;68982;52.160;6.736;2023-07-16T08:42:45;100959.88;;;20.39;57.02
79534;BME280;68982;52.160;6.736;2023-07-16T08:45:11;100964.69;;;20.32;57.34
79534;BME280;68982;52.160;6.736;2023-07-16T08:47:37;100972.59;;;20.28;57.72
79534;BME280;68982;52.160;6.736;2023-07-16T08:50:03;100977.78;;;20.29;57.42
79534;BME280;68982;52.160;6.736;2023-07-16T08:52:29;100964.78;;;20.37;58.59
79534;BME280;68982;52.160;6.736;2023-07-16T08:54:55;100972.41;;;20.35;58.20
79534;BME280;68982;52.160;6.736;2023-07-16T08:57:20;100970.75;;;20.34;56.88
79534;BME280;68982;52.160;6.736;2023-07-16T08:59:50;100977.78;;;20.29;58.16
79534;BME280;68982;52.160;6.736;2023-07-16T09:02:19;100978.88;;;20.45;58.04
79534;BME280;68982;52.160;6.736;2023-07-16T09:04:49;100987.94;;;20.12;57.72
79534;BME280;68982;52.160;6.736;2023-07-16T09:07:16;100984.50;;;20.56;57.18
79534;BME280;68982;52.160;6.736;2023-07-16T09:09:41;100973.53;;;20.56;56.69
79534;BME280;68982;52.160;6.736;2023-07-16T09:12:11;100998.88;;;20.63;57.04
79534;BME280;68982;52.160;6.736;2023-07-16T09:14:37;100989.59;;;20.30;56.88
79534;BME280;68982;52.160;6.736;2023-07-16T09:17:03;101004.75;;;20.21;57.21
79534;BME280;68982;52.160;6.736;2023-07-16T09:19:32;100999.38;;;20.26;56.30
79534;BME280;68982;52.160;6.736;2023-07-16T09:21:57;101001.50;;;20.41;56.78
79534;BME280;68982;52.160;6.736;2023-07-16T09:24:23;101004.00;;;20.76;56.67
79534;BME280;68982;52.160;6.736;2023-07-16T09:26:49;100998.09;;;20.67;56.75
79534;BME280;68982;52.160;6.736;2023-07-16T09:29:15;101012.94;;;20.88;56.40
79534;BME280;68982;52.160;6.736;2023-07-16T09:32:00;101000.09;;;20.55;56.84
79534;BME280;68982;52.160;6.736;2023-07-16T09:34:28;101009.50;;;20.42;56.70
79534;BME280;68982;52.160;6.736;2023-07-16T09:36:53;101005.59;;;20.55;56.13
79534;BME280;68982;52.160;6.736;2023-07-16T09:39:19;101011.81;;;20.50;57.57
79534;BME280;68982;52.160;6.736;2023-07-16T09:41:46;101013.94;;;20.82;56.78
79534;BME280;68982;52.160;6.736;2023-07-16T09:44:13;101010.59;;;20.97;54.91
79534;BME280;68982;52.160;6.736;2023-07-16T09:46:38;101016.56;;;20.94;55.16
79534;BME280;68982;52.160;6.736;2023-07-16T09:49:04;101013.28;;;20.92;54.07
79534;BME280;68982;52.160;6.736;2023-07-16T09:51:30;101009.22;;;20.78;55.12
79534;BME280;68982;52.160;6.736;2023-07-16T09:54:02;101006.38;;;20.89;54.83
79534;BME280;68982;52.160;6.736;2023-07-16T09:56:50;101019.22;;;21.28;54.92
79534;BME280;68982;52.160;6.736;2023-07-16T09:59:25;101011.50;;;21.47;55.23
79534;BME280;68982;52.160;6.736;2023-07-16T10:01:52;101025.00;;;21.31;53.99
79534;BME280;68982;52.160;6.736;2023-07-16T10:04:19;101022.03;;;21.33;53.69
79534;BME280;68982;52.160;6.736;2023-07-16T10:06:57;101033.50;;;21.52;54.25
79534;BME280;68982;52.160;6.736;2023-07-16T10:09:42;101034.53;;;21.24;54.43
79534;BME280;68982;52.160;6.736;2023-07-16T10:12:17;101023.31;;;21.47;52.74
79534;BME280;68982;52.160;6.736;2023-07-16T10:14:44;101030.97;;;21.23;53.68
79534;BME280;68982;52.160;6.736;2023-07-16T10:17:19;101045.94;;;21.16;55.37
79534;BME280;68982;52.160;6.736;2023-07-16T10:20:07;101037.50;;;21.22;54.83
79534;BME280;68982;52.160;6.736;2023-07-16T10:22:48;101041.34;;;21.21;53.70
79534;BME280;68982;52.160;6.736;2023-07-16T10:27:49;101045.44;;;21.63;52.38
79534;BME280;68982;52.160;6.736;2023-07-16T10:30:15;101046.59;;;21.45;52.45
79534;BME280;68982;52.160;6.736;2023-07-16T10:32:40;101055.84;;;21.17;53.91
79534;BME280;68982;52.160;6.736;2023-07-16T10:35:07;101053.75;;;21.07;55.33
79534;BME280;68982;52.160;6.736;2023-07-16T10:37:36;101061.69;;;21.03;54.19
79534;BME280;68982;52.160;6.736;2023-07-16T10:40:03;101051.78;;;21.02;55.30
79534;BME280;68982;52.160;6.736;2023-07-16T10:42:29;101064.44;;;20.69;54.97
79534;BME280;68982;52.160;6.736;2023-07-16T10:44:58;101055.13;;;20.54;55.79
79534;BME280;68982;52.160;6.736;2023-07-16T10:47:29;101070.63;;;20.60;56.21
79534;BME280;68982;52.160;6.736;2023-07-16T10:49:55;101059.03;;;20.41;57.16
79534;BME280;68982;52.160;6.736;2023-07-16T10:52:21;101077.06;;;20.37;55.66
79534;BME280;68982;52.160;6.736;2023-07-16T10:54:48;101082.19;;;20.33;56.04
79534;BME280;68982;52.160;6.736;2023-07-16T10:57:20;101083.00;;;20.34;55.32
79534;BME280;68982;52.160;6.736;2023-07-16T10:59:45;101070.16;;;20.51;55.82
79534;BME280;68982;52.160;6.736;2023-07-16T11:02:12;101078.63;;;20.49;56.20
79534;BME280;68982;52.160;6.736;2023-07-16T11:04:39;101076.56;;;20.74;56.62
79534;BME280;68982;52.160;6.736;2023-07-16T11:07:09;101090.97;;;21.03;55.57
79534;BME280;68982;52.160;6.736;2023-07-16T11:09:53;101092.09;;;21.02;54.39
79534;BME280;68982;52.160;6.736;2023-07-16T11:12:21;101079.41;;;21.18;54.77
79534;BME280;68982;52.160;6.736;2023-07-16T11:14:51;101083.84;;;21.63;53.46
79534;BME280;68982;52.160;6.736;2023-07-16T11:17:17;101093.63;;;21.53;54.45
79534;BME280;68982;52.160;6.736;2023-07-16T11:19:47;101082.25;;;21.67;54.22
79534;BME280;68982;52.160;6.736;2023-07-16T11:22:13;101083.78;;;21.80;53.13
79534;BME280;68982;52.160;6.736;2023-07-16T11:24:49;101091.44;;;22.05;53.96
79534;BME280;68982;52.160;6.736;2023-07-16T11:27:27;101085.44;;;21.81;51.11
79534;BME280;68982;52.160;6.736;2023-07-16T11:32:57;101091.00;;;21.86;52.16
79534;BME280;68982;52.160;6.736;2023-07-16T11:35:23;101091.78;;;21.59;53.14
79534;BME280;68982;52.160;6.736;2023-07-16T11:37:48;101096.13;;;21.55;52.63
79534;BME280;68982;52.160;6.736;2023-07-16T11:40:18;101101.78;;;21.48;54.76
79534;BME280;68982;52.160;6.736;2023-07-16T11:42:44;101090.81;;;21.48;53.67
79534;BME280;68982;52.160;6.736;2023-07-16T11:45:20;101101.22;;;21.46;54.94
79534;BME280;68982;52.160;6.736;2023-07-16T11:47:46;101098.41;;;21.41;52.81
79534;BME280;68982;52.160;6.736;2023-07-16T11:50:12;101096.25;;;21.43;53.25
79534;BME280;68982;52.160;6.736;2023-07-16T11:52:38;101108.88;;;21.44;52.89
79534;BME280;68982;52.160;6.736;2023-07-16T11:55:04;101114.16;;;21.51;52.31
79534;BME280;68982;52.160;6.736;2023-07-16T11:57:30;101116.72;;;21.80;51.24
79534;BME280;68982;52.160;6.736;2023-07-16T11:59:55;101122.84;;;21.65;53.77
79534;BME280;68982;52.160;6.736;2023-07-16T12:02:21;101113.53;;;21.66;53.30
79534;BME280;68982;52.160;6.736;2023-07-16T12:04:47;101107.19;;;21.65;52.54
79534;BME280;68982;52.160;6.736;2023-07-16T12:07:12;101106.41;;;21.26;51.90
79534;BME280;68982;52.160;6.736;2023-07-16T12:09:38;101111.41;;;21.12;53.16
79534;BME280;68982;52.160;6.736;2023-07-16T12:12:03;101118.81;;;21.11;54.06
79534;BME280;68982;52.160;6.736;2023-07-16T12:14:30;101106.69;;;21.07;53.69
79534;BME280;68982;52.160;6.736;2023-07-16T12:16:55;101104.09;;;21.18;53.55
79534;BME280;68982;52.160;6.736;2023-07-16T12:19:21;101118.59;;;21.35;55.25
79534;BME280;68982;52.160;6.736;2023-07-16T12:21:47;101114.22;;;21.56;52.17
79534;BME280;68982;52.160;6.736;2023-07-16T12:24:12;101114.34;;;21.44;51.75
79534;BME280;68982;52.160;6.736;2023-07-16T12:26:38;101115.31;;;21.55;53.09
79534;BME280;68982;52.160;6.736;2023-07-16T12:29:03;101110.22;;;21.42;52.74
79534;BME280;68982;52.160;6.736;2023-07-16T12:31:31;101119.09;;;21.32;51.58
79534;BME280;68982;52.160;6.736;2023-07-16T12:33:57;101112.25;;;21.13;52.83
79534;BME280;68982;52.160;6.736;2023-07-16T12:36:23;101117.75;;;21.13;54.20
79534;BME280;68982;52.160;6.736;2023-07-16T12:38:48;101121.38;;;21.18;52.97
79534;BME280;68982;52.160;6.736;2023-07-16T12:41:14;101113.41;;;21.17;52.86
79534;BME280;68982;52.160;6.736;2023-07-16T12:43:42;101111.97;;;21.14;52.57
79534;BME280;68982;52.160;6.736;2023-07-16T12:46:08;101115.47;;;21.09;53.67
79534;BME280;68982;52.160;6.736;2023-07-16T12:48:34;101127.31;;;21.32;52.74
79534;BME280;68982;52.160;6.736;2023-07-16T12:50:59;101128.47;;;21.36;54.40
79534;BME280;68982;52.160;6.736;2023-07-16T12:53:25;101132.56;;;21.33;52.18
79534;BME280;68982;52.160;6.736;2023-07-16T12:55:51;101125.84;;;21.24;52.77
79534;BME280;68982;52.160;6.736;2023-07-16T12:58:17;101136.13;;;20.95;52.42